createdAt,value
2023-09-06T00:39:32.688Z,1.40
2023-09-06T00:42:02.203Z,1.60
2023-09-06T00:44:31.231Z,1.50
2023-09-06T00:47:02.357Z,1.50
2023-09-06T00:49:33.329Z,1.70
2023-09-06T00:52:21.050Z,1.98
2023-09-06T00:54:51.608Z,1.42
2023-09-06T00:57:20.934Z,1.70
2023-09-06T00:59:52.770Z,1.50
2023-09-06T01:02:21.944Z,1.90
2023-09-06T01:04:51.126Z,1.60
2023-09-06T01:07:21.455Z,1.70
2023-09-06T01:09:52.093Z,1.70
2023-09-06T01:12:21.590Z,1.60
2023-09-06T01:14:51.176Z,1.77
2023-09-06T01:17:21.773Z,1.50
2023-09-06T01:19:59.526Z,1.60
2023-09-06T01:22:35.950Z,1.65
2023-09-06T01:25:07.309Z,1.63
2023-09-06T01:27:38.149Z,1.70
2023-09-06T01:30:09.470Z,1.70
2023-09-06T01:32:42.288Z,2.10
2023-09-06T01:35:12.020Z,1.80
2023-09-06T01:37:41.222Z,1.70
2023-09-06T01:40:18.896Z,1.70
2023-09-06T01:42:49.303Z,1.70
2023-09-06T01:45:18.982Z,1.97
2023-09-06T01:47:49.576Z,1.90
2023-09-06T01:50:21.171Z,1.90
2023-09-06T01:52:50.705Z,2.00
2023-09-06T01:55:22.374Z,1.90
2023-09-06T01:57:51.615Z,1.70
2023-09-06T02:00:24.072Z,1.90
2023-09-06T02:02:53.190Z,1.70
2023-09-06T02:05:22.485Z,1.70
2023-09-06T02:07:53.357Z,1.70
2023-09-06T02:10:26.187Z,2.23
2023-09-06T02:12:55.574Z,2.07
2023-09-06T02:15:25.241Z,1.97
2023-09-06T02:17:54.797Z,1.97
2023-09-06T02:20:28.095Z,2.00
2023-09-06T02:22:58.217Z,1.93
2023-09-06T02:25:31.764Z,1.60
2023-09-06T02:28:05.671Z,1.73
2023-09-06T02:30:37.834Z,2.00
2023-09-06T02:33:08.944Z,2.07
2023-09-06T02:35:41.897Z,1.90
2023-09-06T02:38:13.437Z,1.97
2023-09-06T02:40:44.795Z,1.80
2023-09-06T02:43:15.121Z,1.93
2023-09-06T02:45:51.557Z,1.77
2023-09-06T02:48:20.960Z,2.40
2023-09-06T02:50:53.224Z,1.93
2023-09-06T02:53:23.020Z,1.93
2023-09-06T02:55:55.194Z,2.10
2023-09-06T02:58:26.807Z,1.87
2023-09-06T03:01:00.105Z,1.97
2023-09-06T03:03:30.417Z,1.80
2023-09-06T03:06:05.459Z,1.90
2023-09-06T03:08:38.094Z,2.07
2023-09-06T03:11:13.167Z,1.97
2023-09-06T03:13:42.645Z,1.87
2023-09-06T03:16:14.724Z,1.90
2023-09-06T03:18:46.773Z,2.00
2023-09-06T03:21:17.401Z,2.13
2023-09-06T03:23:47.465Z,2.20
2023-09-06T03:26:19.444Z,1.70
2023-09-06T03:28:48.925Z,2.03
2023-09-06T03:31:20.764Z,2.13
2023-09-06T03:33:50.084Z,2.20
2023-09-06T03:36:19.616Z,1.87
2023-09-06T03:38:48.798Z,1.87
2023-09-06T03:41:19.525Z,2.13
2023-09-06T03:43:48.704Z,2.30
2023-09-06T03:46:21.037Z,1.80
2023-09-06T03:49:08.111Z,1.73
2023-09-06T03:51:37.966Z,1.90
2023-09-06T03:54:10.661Z,1.90
2023-09-06T03:56:42.812Z,2.03
2023-09-06T03:59:12.857Z,2.10
2023-09-06T04:01:45.414Z,2.07
2023-09-06T04:04:15.695Z,2.00
2023-09-06T04:06:45.320Z,2.17
2023-09-06T04:09:19.716Z,2.10
2023-09-06T04:11:50.530Z,1.90
2023-09-06T04:14:19.615Z,2.17
2023-09-06T04:16:49.895Z,2.20
2023-09-06T04:19:20.969Z,2.10
2023-09-06T04:21:50.462Z,2.23
2023-09-06T04:24:21.881Z,2.30
2023-09-06T04:26:52.463Z,2.30
2023-09-06T04:29:21.708Z,2.20
2023-09-06T04:31:50.988Z,2.03
2023-09-06T04:34:20.576Z,3.70
2023-09-06T04:36:50.758Z,2.20
2023-09-06T04:39:21.681Z,2.00
2023-09-06T04:41:52.358Z,2.07
2023-09-06T04:44:25.906Z,1.93
2023-09-06T04:46:56.459Z,2.40
2023-09-06T04:49:26.202Z,2.10
2023-09-06T04:51:55.326Z,2.23
2023-09-06T04:54:24.857Z,2.10
2023-09-06T04:56:55.551Z,2.40
2023-09-06T04:59:26.708Z,1.90
2023-09-06T05:01:55.850Z,2.63
2023-09-06T05:04:25.953Z,2.30
2023-09-06T05:06:55.589Z,2.77
2023-09-06T05:09:25.334Z,1.97
2023-09-06T05:11:56.020Z,2.03
2023-09-06T05:14:25.236Z,2.10
2023-09-06T05:16:54.506Z,1.97
2023-09-06T05:19:28.810Z,2.20
2023-09-06T05:21:58.624Z,2.20
2023-09-06T05:24:28.094Z,1.70
2023-09-06T05:26:59.662Z,2.30
2023-09-06T05:29:30.743Z,2.30
2023-09-06T05:32:00.396Z,2.30
2023-09-06T05:34:30.830Z,2.17
2023-09-06T05:37:00.942Z,2.40
2023-09-06T05:39:32.143Z,2.10
2023-09-06T05:42:03.196Z,2.60
2023-09-06T05:44:33.154Z,2.27
2023-09-06T05:47:02.519Z,1.93
2023-09-06T05:49:31.832Z,2.23
2023-09-06T05:52:01.523Z,1.90
2023-09-06T05:54:30.826Z,2.43
2023-09-06T05:57:00.103Z,2.20
2023-09-06T05:59:31.703Z,2.57
2023-09-06T06:02:01.067Z,1.80
2023-09-06T06:04:30.377Z,2.03
2023-09-06T06:06:59.603Z,2.33
2023-09-06T06:09:29.045Z,2.40
2023-09-06T06:11:58.232Z,2.37
2023-09-06T06:14:29.552Z,2.37
2023-09-06T06:17:00.181Z,2.33
2023-09-06T06:19:29.451Z,2.00
2023-09-06T06:21:59.360Z,2.40
2023-09-06T06:24:29.556Z,2.37
2023-09-06T06:26:59.524Z,2.23
2023-09-06T06:29:29.545Z,2.20
2023-09-06T06:32:00.468Z,2.23
2023-09-06T06:34:29.716Z,2.37
2023-09-06T06:36:58.816Z,2.53
2023-09-06T06:39:30.821Z,2.30
2023-09-06T06:42:00.042Z,2.37
2023-09-06T06:44:35.489Z,2.00
2023-09-06T06:47:06.490Z,2.60
2023-09-06T06:49:35.663Z,2.30
2023-09-06T06:52:04.870Z,2.33
2023-09-06T06:54:34.096Z,2.10
2023-09-06T06:57:03.623Z,2.40
2023-09-06T06:59:32.864Z,2.33
2023-09-06T07:02:02.044Z,2.40
2023-09-06T07:04:32.672Z,2.63
2023-09-06T07:07:01.876Z,2.10
2023-09-06T07:09:30.962Z,2.20
2023-09-06T07:12:00.196Z,2.50
2023-09-06T07:14:29.443Z,2.40
2023-09-06T07:17:00.284Z,2.87
2023-09-06T07:19:29.750Z,2.60
2023-09-06T07:22:01.724Z,2.60
2023-09-06T07:24:30.868Z,2.37
2023-09-06T07:27:00.036Z,2.80
2023-09-06T07:29:29.226Z,3.17
2023-09-06T07:31:58.834Z,2.87
2023-09-06T07:34:28.071Z,2.67
2023-09-06T07:36:57.270Z,2.83
2023-09-06T07:39:27.843Z,2.80
2023-09-06T07:41:57.497Z,2.40
2023-09-06T07:44:30.626Z,2.50
2023-09-06T07:46:59.882Z,2.47
2023-09-06T07:49:31.951Z,2.37
2023-09-06T07:52:06.325Z,2.70
2023-09-06T07:54:37.243Z,2.72
2023-09-06T07:57:06.996Z,2.70
2023-09-06T07:59:36.206Z,2.85
2023-09-06T08:02:05.791Z,2.40
2023-09-06T08:04:35.020Z,2.85
2023-09-06T08:07:05.042Z,2.70
2023-09-06T08:09:34.282Z,2.70
2023-09-06T08:12:05.507Z,2.88
2023-09-06T08:14:34.757Z,2.83
2023-09-06T08:17:04.303Z,2.63
2023-09-06T08:19:34.351Z,2.85
2023-09-06T08:22:03.527Z,2.90
2023-09-06T08:24:33.353Z,2.13
2023-09-06T08:27:02.572Z,2.15
2023-09-06T08:29:33.183Z,3.00
2023-09-06T08:32:02.468Z,2.55
2023-09-06T08:34:31.976Z,2.85
2023-09-06T08:37:01.083Z,2.60
2023-09-06T08:39:30.253Z,2.58
2023-09-06T08:42:00.241Z,2.70
2023-09-06T08:44:31.207Z,2.75
2023-09-06T08:47:05.825Z,2.55
2023-09-06T08:49:35.742Z,2.63
2023-09-06T08:52:05.650Z,2.60
2023-09-06T08:54:36.016Z,2.80
2023-09-06T08:57:06.582Z,2.38
2023-09-06T08:59:36.152Z,2.88
2023-09-06T09:02:06.727Z,2.60
2023-09-06T09:04:42.336Z,2.40
2023-09-06T09:07:12.221Z,2.65
2023-09-06T09:09:58.724Z,2.55
2023-09-06T09:12:28.128Z,3.00
2023-09-06T09:15:02.437Z,2.78
2023-09-06T09:17:53.293Z,2.53
2023-09-06T09:20:29.128Z,2.40
2023-09-06T09:23:03.583Z,2.90
2023-09-06T09:25:37.533Z,2.15
2023-09-06T09:28:09.762Z,2.22
2023-09-06T09:30:41.134Z,2.78
2023-09-06T09:33:12.209Z,2.30
2023-09-06T09:35:42.206Z,2.20
2023-09-06T09:38:13.186Z,2.45
2023-09-06T09:40:52.978Z,2.38
2023-09-06T09:43:23.305Z,2.25
2023-09-06T09:45:52.866Z,2.22
2023-09-06T09:48:30.497Z,2.20
2023-09-06T09:51:02.079Z,2.38
2023-09-06T09:53:33.967Z,2.30
2023-09-06T09:56:08.438Z,2.05
2023-09-06T09:58:40.431Z,2.05
2023-09-06T10:01:12.313Z,2.30
2023-09-06T10:03:44.046Z,2.38
2023-09-06T10:06:14.125Z,2.08
2023-09-06T10:08:47.474Z,2.30
2023-09-06T10:11:20.791Z,2.20
2023-09-06T10:13:50.665Z,2.20
2023-09-06T10:16:21.509Z,2.08
2023-09-06T10:18:52.850Z,2.00
2023-09-06T10:21:22.508Z,2.40
2023-09-06T10:23:51.860Z,2.10
2023-09-06T10:26:28.299Z,2.38
2023-09-06T10:29:02.303Z,2.65
2023-09-06T10:31:47.844Z,2.10
2023-09-06T10:34:19.277Z,2.28
2023-09-06T10:36:59.029Z,2.25
2023-09-06T10:39:30.033Z,2.28
2023-09-06T10:42:30.069Z,2.20
2023-09-06T10:45:12.925Z,1.85
2023-09-06T10:47:43.712Z,2.03
2023-09-06T10:50:19.510Z,2.05
2023-09-06T10:52:54.459Z,1.80
2023-09-06T10:55:25.634Z,2.08
2023-09-06T10:57:56.412Z,1.95
2023-09-06T11:00:32.344Z,2.00
2023-09-06T11:03:22.258Z,2.20
2023-09-06T11:05:58.236Z,1.63
2023-09-06T11:08:31.672Z,1.92
2023-09-06T11:11:09.219Z,2.00
2023-09-06T11:13:40.386Z,2.15
2023-09-06T11:16:15.111Z,1.90
2023-09-06T11:18:49.167Z,1.90
2023-09-06T11:21:21.169Z,2.17
2023-09-06T11:23:51.347Z,2.10
2023-09-06T11:26:21.895Z,1.70
2023-09-06T11:29:02.631Z,1.70
2023-09-06T11:31:34.740Z,1.90
2023-09-06T11:34:06.922Z,1.90
2023-09-06T11:36:38.371Z,1.77
2023-09-06T11:39:17.128Z,2.10
2023-09-06T11:41:48.880Z,1.80
2023-09-06T11:44:20.551Z,2.10
2023-09-06T11:46:50.749Z,2.00
2023-09-06T11:49:22.814Z,1.80
2023-09-06T11:51:55.702Z,1.40
2023-09-06T11:54:28.424Z,2.10
2023-09-06T11:56:59.136Z,1.60
2023-09-06T11:59:33.176Z,1.75
2023-09-06T12:02:04.419Z,2.00
2023-09-06T12:04:33.833Z,1.63
2023-09-06T12:07:09.300Z,1.77
2023-09-06T12:09:39.106Z,2.05
2023-09-06T12:12:09.173Z,1.60
2023-09-06T12:14:39.479Z,1.80
2023-09-06T12:17:09.077Z,1.70
2023-09-06T12:19:38.610Z,1.50
2023-09-06T12:22:15.689Z,1.90
2023-09-06T12:24:47.466Z,1.65
2023-09-06T12:27:19.688Z,1.63
2023-09-06T12:29:48.816Z,1.40
2023-09-06T12:32:18.587Z,1.60
2023-09-06T12:34:47.907Z,1.38
2023-09-06T12:37:19.159Z,1.60
2023-09-06T12:39:48.758Z,1.70
2023-09-06T12:42:18.434Z,1.58
2023-09-06T12:44:47.651Z,1.60
2023-09-06T12:47:17.722Z,1.50
2023-09-06T12:49:46.935Z,1.58
2023-09-06T12:52:21.460Z,1.45
2023-09-06T12:54:50.636Z,1.60
2023-09-06T12:57:19.873Z,1.98
2023-09-06T12:59:49.170Z,1.75
2023-09-06T13:02:18.842Z,1.30
2023-09-06T13:04:49.075Z,1.48
2023-09-06T13:07:19.870Z,1.50
2023-09-06T13:09:48.954Z,1.35
2023-09-06T13:12:18.011Z,1.70
2023-09-06T13:14:47.136Z,1.60
2023-09-06T13:17:16.659Z,1.60
2023-09-06T13:19:46.059Z,1.63
2023-09-06T13:22:15.187Z,1.48
2023-09-06T13:24:46.229Z,1.40
2023-09-06T13:27:15.283Z,1.40
2023-09-06T13:29:44.553Z,1.55
2023-09-06T13:32:14.318Z,1.35
2023-09-06T13:34:43.644Z,1.55
2023-09-06T13:37:12.807Z,1.55
2023-09-06T13:39:44.236Z,1.40
2023-09-06T13:42:15.195Z,1.50
2023-09-06T13:44:44.310Z,1.40
2023-09-06T13:47:17.669Z,1.58
2023-09-06T13:49:46.985Z,1.20
2023-09-06T13:52:16.824Z,1.45
2023-09-06T13:54:45.985Z,1.42
2023-09-06T13:57:16.570Z,1.30
2023-09-06T13:59:45.641Z,1.25
2023-09-06T14:02:15.069Z,1.40
2023-09-06T14:04:44.399Z,1.50
2023-09-06T14:07:13.592Z,1.38
2023-09-06T14:09:42.627Z,1.40
2023-09-06T14:12:11.724Z,1.27
2023-09-06T14:14:42.186Z,1.20
2023-09-06T14:17:11.408Z,1.17
2023-09-06T14:19:40.580Z,1.48
2023-09-06T14:22:11.583Z,1.20
2023-09-06T14:24:41.056Z,1.20
2023-09-06T14:27:10.174Z,1.40
2023-09-06T14:29:39.255Z,1.25
2023-09-06T14:32:09.913Z,1.38
2023-09-06T14:34:39.208Z,1.50
2023-09-06T14:37:08.338Z,1.30
2023-09-06T14:39:38.796Z,1.23
2023-09-06T14:42:08.565Z,1.40
2023-09-06T14:44:37.894Z,1.10
2023-09-06T14:47:09.433Z,1.17
2023-09-06T14:49:39.959Z,1.40
2023-09-06T14:52:09.117Z,1.30
2023-09-06T14:54:38.208Z,1.42
2023-09-06T14:57:07.863Z,1.30
2023-09-06T14:59:39.172Z,1.08
2023-09-06T15:02:10.288Z,1.27
2023-09-06T15:04:39.762Z,1.30
2023-09-06T15:07:08.738Z,1.40
2023-09-06T15:09:38.659Z,1.40
2023-09-06T15:12:08.682Z,1.40
2023-09-06T15:14:37.876Z,1.40
2023-09-06T15:17:10.946Z,1.23
2023-09-06T15:19:41.037Z,1.30
2023-09-06T15:22:10.219Z,1.23
2023-09-06T15:24:39.351Z,1.30
2023-09-06T15:27:08.588Z,1.30
2023-09-06T15:29:44.746Z,1.60
2023-09-06T15:32:15.361Z,1.42
2023-09-06T15:34:44.904Z,1.50
2023-09-06T15:37:14.428Z,1.30
2023-09-06T15:39:44.942Z,1.42
2023-09-06T15:42:15.010Z,1.50
2023-09-06T15:44:44.774Z,1.40
2023-09-06T15:47:16.094Z,1.50
2023-09-06T15:49:46.177Z,1.48
2023-09-06T15:52:15.309Z,1.60
2023-09-06T15:54:45.384Z,1.30
2023-09-06T15:57:14.576Z,1.27
2023-09-06T15:59:43.746Z,1.23
2023-09-06T16:02:14.537Z,1.60
2023-09-06T16:04:43.839Z,1.10
2023-09-06T16:07:13.029Z,1.48
2023-09-06T16:09:42.930Z,1.40
2023-09-06T16:12:12.090Z,1.38
2023-09-06T16:14:42.164Z,1.30
2023-09-06T16:17:11.555Z,1.52
2023-09-06T16:19:42.173Z,1.42
2023-09-06T16:22:11.375Z,1.20
2023-09-06T16:24:40.560Z,1.10
2023-09-06T16:27:09.768Z,1.40
2023-09-06T16:29:39.164Z,1.40
2023-09-06T16:32:08.406Z,1.40
2023-09-06T16:34:37.652Z,1.20
2023-09-06T16:37:08.268Z,1.38
2023-09-06T16:39:37.655Z,1.50
2023-09-06T16:42:07.934Z,1.70
2023-09-06T16:44:39.235Z,1.58
2023-09-06T16:47:08.431Z,1.33
2023-09-06T16:49:37.908Z,1.60
2023-09-06T16:52:09.225Z,1.25
2023-09-06T16:54:38.871Z,1.45
2023-09-06T16:57:08.104Z,1.45
2023-09-06T16:59:37.350Z,1.50
2023-09-06T17:02:07.218Z,1.30
2023-09-06T17:04:36.357Z,1.55
2023-09-06T17:07:07.124Z,1.60
2023-09-06T17:09:37.342Z,1.85
2023-09-06T17:12:07.199Z,1.50
2023-09-06T17:14:37.153Z,1.67
2023-09-06T17:17:06.846Z,1.48
2023-09-06T17:19:36.312Z,1.52
2023-09-06T17:22:05.696Z,1.52
2023-09-06T17:24:37.223Z,1.70
2023-09-06T17:27:09.609Z,1.60
2023-09-06T17:29:41.221Z,1.50
2023-09-06T17:32:10.847Z,1.50
2023-09-06T17:34:48.892Z,1.73
2023-09-06T17:37:18.069Z,1.98
2023-09-06T17:39:48.590Z,1.48
2023-09-06T17:42:17.610Z,1.40
2023-09-06T17:44:46.696Z,1.48
2023-09-06T17:47:15.766Z,1.80
2023-09-06T17:49:44.907Z,1.20
2023-09-06T17:52:14.078Z,1.50
2023-09-06T17:54:43.205Z,1.42
2023-09-06T17:57:14.908Z,1.38
2023-09-06T17:59:44.231Z,1.40
2023-09-06T18:02:13.472Z,1.40
2023-09-06T18:04:42.945Z,1.63
2023-09-06T18:07:12.960Z,1.33
2023-09-06T18:09:42.017Z,1.60
2023-09-06T18:12:11.548Z,1.60
2023-09-06T18:14:43.660Z,1.45
2023-09-06T18:17:12.987Z,1.90
2023-09-06T18:19:42.219Z,1.85
2023-09-06T18:22:13.070Z,1.70
2023-09-06T18:24:42.211Z,1.83
2023-09-06T18:27:12.009Z,1.83
2023-09-06T18:29:42.529Z,1.80
2023-09-06T18:32:11.750Z,1.85
2023-09-06T18:34:41.109Z,1.92
2023-09-06T18:37:10.201Z,1.80
2023-09-06T18:39:41.193Z,2.10
2023-09-06T18:42:10.604Z,2.05
2023-09-06T18:44:41.220Z,2.00
2023-09-06T18:47:10.802Z,2.20
2023-09-06T18:49:40.726Z,2.63
2023-09-06T18:52:10.560Z,2.67
2023-09-06T18:54:40.034Z,2.60
2023-09-06T18:57:12.012Z,2.20
2023-09-06T18:59:42.664Z,2.28
2023-09-06T19:02:11.872Z,2.15
2023-09-06T19:04:44.913Z,2.00
2023-09-06T19:07:15.456Z,2.25
2023-09-06T19:09:46.738Z,2.15
2023-09-06T19:12:17.017Z,1.83
2023-09-06T19:14:47.639Z,2.00
2023-09-06T19:17:20.298Z,2.10
2023-09-06T19:19:49.602Z,1.77
2023-09-06T19:22:18.741Z,2.08
2023-09-06T19:24:47.901Z,1.88
2023-09-06T19:27:17.222Z,2.00
2023-09-06T19:29:50.623Z,2.00
2023-09-06T19:32:21.538Z,2.00
2023-09-06T19:34:49.710Z,1.92
2023-09-06T19:37:21.826Z,1.95
2023-09-06T19:39:51.682Z,2.03
2023-09-06T19:42:22.208Z,1.80
2023-09-06T19:44:54.888Z,2.25
2023-09-06T19:47:24.715Z,2.13
2023-09-06T19:49:53.962Z,2.00
2023-09-06T19:52:23.163Z,2.00
2023-09-06T19:54:52.363Z,1.98
2023-09-06T19:57:21.506Z,1.98
2023-09-06T19:59:52.538Z,2.00
2023-09-06T20:02:23.401Z,2.15
2023-09-06T20:04:53.223Z,2.10
2023-09-06T20:07:22.447Z,2.17
2023-09-06T20:09:51.819Z,2.00
2023-09-06T20:12:21.328Z,2.20
2023-09-06T20:14:53.499Z,2.00
2023-09-06T20:17:24.343Z,2.38
2023-09-06T20:19:55.170Z,2.20
2023-09-06T20:22:25.798Z,2.22
2023-09-06T20:24:55.152Z,2.05
2023-09-06T20:27:24.463Z,2.30
2023-09-06T20:29:53.728Z,2.20
2023-09-06T20:32:24.521Z,1.92
2023-09-06T20:34:53.772Z,2.20
2023-09-06T20:37:23.029Z,2.40
2023-09-06T20:39:52.230Z,2.22
2023-09-06T20:42:21.586Z,2.20
2023-09-06T20:44:50.810Z,2.40
2023-09-06T20:47:20.365Z,2.28
2023-09-06T20:49:57.133Z,1.90
2023-09-06T20:52:26.521Z,2.20
2023-09-06T20:54:57.026Z,2.20
2023-09-06T20:57:26.272Z,2.15
2023-09-06T20:59:55.541Z,2.13
2023-09-06T21:02:24.810Z,2.47
2023-09-06T21:04:55.808Z,1.90
2023-09-06T21:07:25.202Z,2.08
2023-09-06T21:09:54.708Z,1.92
2023-09-06T21:12:24.049Z,2.22
2023-09-06T21:14:56.377Z,1.95
2023-09-06T21:17:27.950Z,2.10
2023-09-06T21:19:58.657Z,2.17
2023-09-06T21:22:27.855Z,2.38
2023-09-06T21:24:59.298Z,2.30
2023-09-06T21:27:28.471Z,2.20
2023-09-06T21:29:57.699Z,1.98
2023-09-06T21:32:26.852Z,1.88
2023-09-06T21:35:00.004Z,2.00
2023-09-06T21:37:29.171Z,2.10
2023-09-06T21:39:59.534Z,2.38
2023-09-06T21:42:28.788Z,2.13
2023-09-06T21:44:58.085Z,2.28
2023-09-06T21:47:31.226Z,2.35
2023-09-06T21:50:05.172Z,2.20
2023-09-06T21:52:35.798Z,2.28
2023-09-06T21:55:05.564Z,2.17
2023-09-06T21:57:34.923Z,2.22
2023-09-06T22:00:10.309Z,2.30
2023-09-06T22:02:58.062Z,2.20
2023-09-06T22:05:47.171Z,2.25
2023-09-06T22:08:54.616Z,2.35
2023-09-06T22:11:44.780Z,2.17
2023-09-06T22:14:16.666Z,2.13
2023-09-06T22:16:46.913Z,2.25
2023-09-06T22:19:17.372Z,2.13
2023-09-06T22:21:48.093Z,2.50
2023-09-06T22:24:17.341Z,2.00
2023-09-06T22:26:46.800Z,2.38
2023-09-06T22:29:16.588Z,2.20
2023-09-06T22:31:46.958Z,2.35
2023-09-06T22:34:16.513Z,2.35
2023-09-06T22:36:46.203Z,2.30
2023-09-06T22:39:16.992Z,2.05
2023-09-06T22:41:46.574Z,2.00
2023-09-06T22:44:15.973Z,2.10
2023-09-06T22:46:45.192Z,2.50
2023-09-06T22:49:14.448Z,2.10
2023-09-06T22:51:45.046Z,2.10
2023-09-06T22:54:14.319Z,2.35
2023-09-06T22:56:46.158Z,2.15
2023-09-06T22:59:15.366Z,2.53
2023-09-06T23:01:45.251Z,2.60
2023-09-06T23:04:14.755Z,2.40
2023-09-06T23:06:44.271Z,2.47
2023-09-06T23:09:13.748Z,1.90
2023-09-06T23:11:51.369Z,2.20
2023-09-06T23:14:21.677Z,2.28
2023-09-06T23:16:51.588Z,2.20
2023-09-06T23:19:26.281Z,2.15
2023-09-06T23:22:06.285Z,2.20
2023-09-06T23:24:39.115Z,2.47
2023-09-06T23:27:17.880Z,2.03
2023-09-06T23:29:51.944Z,2.20
2023-09-06T23:32:21.780Z,2.40
2023-09-06T23:34:53.558Z,2.35
2023-09-06T23:37:23.192Z,2.00
2023-09-06T23:39:53.716Z,2.03
2023-09-06T23:42:24.259Z,2.15
2023-09-06T23:44:53.548Z,2.13
2023-09-06T23:47:22.935Z,2.17
2023-09-06T23:49:52.429Z,2.15
2023-09-06T23:52:23.790Z,2.15
2023-09-06T23:54:53.366Z,2.17
2023-09-06T23:57:23.858Z,2.03
2023-09-06T23:59:53.290Z,2.00
